createdAt,value
2019-01-24T00:00:28.807Z,17.20
2019-01-24T00:02:59.589Z,16.17
2019-01-24T00:05:30.400Z,16.63
2019-01-24T00:08:00.951Z,16.50
2019-01-24T00:10:31.461Z,15.20
2019-01-24T00:13:02.012Z,16.43
2019-01-24T00:15:32.754Z,15.90
2019-01-24T00:18:03.511Z,15.97
2019-01-24T00:20:34.046Z,15.43
2019-01-24T00:23:04.551Z,16.40
2019-01-24T00:25:35.098Z,16.60
2019-01-24T00:28:05.649Z,16.13
2019-01-24T00:30:36.175Z,16.00
2019-01-24T00:33:06.739Z,16.37
2019-01-24T00:35:37.546Z,17.70
2019-01-24T00:38:08.120Z,16.87
2019-01-24T00:40:38.620Z,15.83
2019-01-24T00:43:09.178Z,14.97
2019-01-24T00:45:39.727Z,16.23
2019-01-24T00:48:11.665Z,15.33
2019-01-24T00:50:42.449Z,17.20
2019-01-24T00:53:12.976Z,16.07
2019-01-24T00:55:43.611Z,16.97
2019-01-24T00:58:14.133Z,15.90
2019-01-24T01:00:44.769Z,16.33
2019-01-24T01:03:15.615Z,16.87
2019-01-24T01:05:46.172Z,16.50
2019-01-24T01:08:16.696Z,15.30
2019-01-24T01:10:47.503Z,18.87
2019-01-24T01:13:18.068Z,15.93
2019-01-24T01:15:48.797Z,17.70
2019-01-24T01:18:19.650Z,15.45
2019-01-24T01:20:50.318Z,15.87
2019-01-24T01:23:20.838Z,16.00
2019-01-24T01:25:51.678Z,15.33
2019-01-24T01:28:22.230Z,16.23
2019-01-24T01:30:52.811Z,16.67
2019-01-24T01:33:23.584Z,17.20
2019-01-24T01:35:54.112Z,16.57
2019-01-24T01:38:24.644Z,16.97
2019-01-24T01:40:55.188Z,15.87
2019-01-24T01:43:25.999Z,15.70
2019-01-24T01:45:56.911Z,17.60
2019-01-24T01:48:27.725Z,17.20
2019-01-24T01:50:58.226Z,15.37
2019-01-24T01:53:28.845Z,15.80
2019-01-24T01:55:59.721Z,16.33
2019-01-24T01:58:30.203Z,16.77
2019-01-24T02:01:00.923Z,18.53
2019-01-24T02:03:31.700Z,16.02
2019-01-24T02:06:02.253Z,16.67
2019-01-24T02:08:32.747Z,17.00
2019-01-24T02:11:03.306Z,16.93
2019-01-24T02:13:33.824Z,16.93
2019-01-24T02:16:04.425Z,17.70
2019-01-24T02:18:35.020Z,17.60
2019-01-24T02:21:06.196Z,17.47
2019-01-24T02:23:36.722Z,16.50
2019-01-24T02:26:07.366Z,14.83
2019-01-24T02:28:37.901Z,16.43
2019-01-24T02:31:08.404Z,17.43
2019-01-24T02:33:38.997Z,16.30
2019-01-24T02:36:09.749Z,18.53
2019-01-24T02:38:40.238Z,16.93
2019-01-24T02:41:12.113Z,17.05
2019-01-24T02:43:42.727Z,17.03
2019-01-24T02:46:13.537Z,16.77
2019-01-24T02:48:44.011Z,16.87
2019-01-24T02:51:14.823Z,16.40
2019-01-24T02:53:45.347Z,16.00
2019-01-24T02:56:15.981Z,17.95
2019-01-24T02:58:46.867Z,17.07
2019-01-24T03:01:17.707Z,15.70
2019-01-24T03:03:48.243Z,17.97
2019-01-24T03:06:19.121Z,16.97
2019-01-24T03:08:49.811Z,17.30
2019-01-24T03:11:20.368Z,18.32
2019-01-24T03:13:50.929Z,17.63
2019-01-24T03:16:22.014Z,17.12
2019-01-24T03:18:52.552Z,18.60
2019-01-24T03:21:23.260Z,16.77
2019-01-24T03:23:53.818Z,17.93
2019-01-24T03:26:24.316Z,18.05
2019-01-24T03:28:54.857Z,19.23
2019-01-24T03:31:25.365Z,17.55
2019-01-24T03:33:56.205Z,17.47
2019-01-24T03:36:27.030Z,16.15
2019-01-24T03:38:57.899Z,17.30
2019-01-24T03:41:28.391Z,16.75
2019-01-24T03:43:58.898Z,18.47
2019-01-24T03:46:29.409Z,18.95
2019-01-24T03:49:00.038Z,19.43
2019-01-24T03:51:30.887Z,17.00
2019-01-24T03:54:01.375Z,17.90
2019-01-24T03:56:31.903Z,19.93
2019-01-24T03:59:02.434Z,18.00
2019-01-24T04:01:32.972Z,17.13
2019-01-24T04:04:03.499Z,18.77
2019-01-24T04:06:34.145Z,16.67
2019-01-24T04:09:09.056Z,17.53
2019-01-24T04:11:42.603Z,18.75
2019-01-24T04:14:13.132Z,18.77
2019-01-24T04:16:43.928Z,18.03
2019-01-24T04:19:14.426Z,18.03
2019-01-24T04:21:45.150Z,17.40
2019-01-24T04:24:15.992Z,17.53
2019-01-24T04:26:46.510Z,18.77
2019-01-24T04:29:17.036Z,19.13
2019-01-24T04:31:47.530Z,19.30
2019-01-24T04:34:18.262Z,18.57
2019-01-24T04:36:49.034Z,17.95
2019-01-24T04:39:19.619Z,17.83
2019-01-24T04:41:50.104Z,17.30
2019-01-24T04:44:20.609Z,18.05
2019-01-24T04:46:51.150Z,16.80
2019-01-24T04:49:22.303Z,18.20
2019-01-24T04:51:53.195Z,19.57
2019-01-24T04:54:24.003Z,18.23
2019-01-24T04:56:54.556Z,16.57
2019-01-24T04:59:25.088Z,17.93
2019-01-24T05:01:55.601Z,17.97
2019-01-24T05:04:26.372Z,17.52
2019-01-24T05:06:57.197Z,18.48
2019-01-24T05:09:27.981Z,17.07
2019-01-24T05:11:58.514Z,17.43
2019-01-24T05:14:29.319Z,18.70
2019-01-24T05:17:00.212Z,17.57
2019-01-24T05:19:31.072Z,19.07
2019-01-24T05:22:01.573Z,17.50
2019-01-24T05:24:32.291Z,19.47
2019-01-24T05:27:03.090Z,18.63
2019-01-24T05:29:33.574Z,19.10
2019-01-24T05:32:04.333Z,19.23
2019-01-24T05:34:35.160Z,18.93
2019-01-24T05:37:05.696Z,17.80
2019-01-24T05:39:36.235Z,17.87
2019-01-24T05:42:07.045Z,18.35
2019-01-24T05:44:37.537Z,18.77
2019-01-24T05:47:08.143Z,17.90
2019-01-24T05:49:38.655Z,18.50
2019-01-24T05:52:09.299Z,17.83
2019-01-24T05:54:39.806Z,19.63
2019-01-24T05:57:10.386Z,19.37
2019-01-24T05:59:41.117Z,18.93
2019-01-24T06:02:12.479Z,16.73
2019-01-24T06:04:43.204Z,17.97
2019-01-24T06:07:14.010Z,18.57
2019-01-24T06:09:44.547Z,19.30
2019-01-24T06:12:15.435Z,19.50
2019-01-24T06:14:46.165Z,18.73
2019-01-24T06:17:16.744Z,19.07
2019-01-24T06:19:47.277Z,19.20
2019-01-24T06:22:18.398Z,18.17
2019-01-24T06:24:48.943Z,19.20
2019-01-24T06:27:19.591Z,18.83
2019-01-24T06:29:50.224Z,18.73
2019-01-24T06:32:20.807Z,19.62
2019-01-24T06:34:51.397Z,18.80
2019-01-24T06:37:21.989Z,19.60
2019-01-24T06:39:52.587Z,19.00
2019-01-24T06:42:23.398Z,20.52
2019-01-24T06:44:54.434Z,18.87
2019-01-24T06:47:25.243Z,20.03
2019-01-24T06:49:55.950Z,20.97
2019-01-24T06:52:26.576Z,21.42
2019-01-24T06:54:57.409Z,19.17
2019-01-24T06:57:28.188Z,20.75
2019-01-24T06:59:58.674Z,21.13
2019-01-24T07:02:29.275Z,19.40
2019-01-24T07:04:59.767Z,19.87
2019-01-24T07:07:30.303Z,18.10
2019-01-24T07:10:00.822Z,20.57
2019-01-24T07:12:31.886Z,18.60
2019-01-24T07:15:02.397Z,21.43
2019-01-24T07:17:33.243Z,19.52
2019-01-24T07:20:05.199Z,21.40
2019-01-24T07:22:35.690Z,20.90
2019-01-24T07:25:10.373Z,19.65
2019-01-24T07:27:40.982Z,19.90
2019-01-24T07:30:14.863Z,20.25
2019-01-24T07:32:45.384Z,21.43
2019-01-24T07:35:17.063Z,18.47
2019-01-24T07:37:47.610Z,17.83
2019-01-24T07:40:19.370Z,19.73
2019-01-24T07:42:52.425Z,18.53
2019-01-24T07:45:32.456Z,19.07
2019-01-24T07:48:03.048Z,18.20
2019-01-24T07:50:33.601Z,19.50
2019-01-24T07:53:06.318Z,18.17
2019-01-24T07:55:36.991Z,18.83
2019-01-24T07:58:08.470Z,18.03
2019-01-24T08:00:40.307Z,18.43
2019-01-24T08:03:10.939Z,18.60
2019-01-24T08:05:41.451Z,17.10
2019-01-24T08:08:12.801Z,17.90
2019-01-24T08:10:44.007Z,21.00
2019-01-24T08:13:14.785Z,19.90
2019-01-24T08:15:45.791Z,17.17
2019-01-24T08:18:16.680Z,17.97
2019-01-24T08:20:47.514Z,18.80
2019-01-24T08:23:18.099Z,18.37
2019-01-24T08:25:48.771Z,18.83
2019-01-24T08:28:19.773Z,17.30
2019-01-24T08:30:50.644Z,19.00
2019-01-24T08:33:21.464Z,18.45
2019-01-24T08:35:51.998Z,18.77
2019-01-24T08:38:22.535Z,18.85
2019-01-24T08:40:53.048Z,17.37
2019-01-24T08:43:23.824Z,19.05
2019-01-24T08:45:54.607Z,18.55
2019-01-24T08:48:25.176Z,19.37
2019-01-24T08:50:55.787Z,19.27
2019-01-24T08:53:26.561Z,20.85
2019-01-24T08:55:57.115Z,20.37
2019-01-24T08:58:27.809Z,19.10
2019-01-24T09:00:58.668Z,20.10
2019-01-24T09:03:29.510Z,19.95
2019-01-24T09:06:00.109Z,18.37
2019-01-24T09:08:30.657Z,19.13
2019-01-24T09:11:01.492Z,19.62
2019-01-24T09:13:32.111Z,20.13
2019-01-24T09:16:02.706Z,18.93
2019-01-24T09:18:33.253Z,20.40
2019-01-24T09:21:03.877Z,21.30
2019-01-24T09:23:34.601Z,20.60
2019-01-24T09:26:05.467Z,19.93
2019-01-24T09:28:35.985Z,19.97
2019-01-24T09:31:06.773Z,20.23
2019-01-24T09:33:37.584Z,21.65
2019-01-24T09:36:08.399Z,22.43
2019-01-24T09:38:38.946Z,20.67
2019-01-24T09:41:09.640Z,20.60
2019-01-24T09:43:40.416Z,21.37
2019-01-24T09:46:12.110Z,21.87
2019-01-24T09:48:42.762Z,20.63
2019-01-24T09:51:13.586Z,20.27
2019-01-24T09:53:44.103Z,20.87
2019-01-24T09:56:14.624Z,21.30
2019-01-24T09:58:45.191Z,20.03
2019-01-24T10:01:15.995Z,19.57
2019-01-24T10:03:46.822Z,20.30
2019-01-24T10:06:17.663Z,21.97
2019-01-24T10:08:48.195Z,22.00
2019-01-24T10:11:23.477Z,20.27
2019-01-24T10:13:51.238Z,22.57
2019-01-24T10:16:22.062Z,20.37
2019-01-24T10:18:52.890Z,22.07
2019-01-24T10:21:23.747Z,20.85
2019-01-24T10:23:54.298Z,21.47
2019-01-24T10:26:24.800Z,21.48
2019-01-24T10:28:55.624Z,20.60
2019-01-24T10:31:26.199Z,18.35
2019-01-24T10:33:56.856Z,19.73
2019-01-24T10:36:27.649Z,19.92
2019-01-24T10:38:58.239Z,21.07
2019-01-24T10:41:28.787Z,20.68
2019-01-24T10:43:59.343Z,21.20
2019-01-24T10:46:30.082Z,18.92
2019-01-24T10:49:01.030Z,21.67
2019-01-24T10:51:31.895Z,20.32
2019-01-24T10:54:02.709Z,20.72
2019-01-24T10:56:33.248Z,20.80
2019-01-24T10:59:03.880Z,20.53
2019-01-24T11:01:34.736Z,21.07
2019-01-24T11:04:05.380Z,20.23
2019-01-24T11:06:35.928Z,21.00
2019-01-24T11:09:09.953Z,20.47
2019-01-24T11:11:40.911Z,21.47
2019-01-24T11:14:13.099Z,23.62
2019-01-24T11:16:43.855Z,21.03
2019-01-24T11:19:15.013Z,21.90
2019-01-24T11:21:45.577Z,20.97
2019-01-24T11:24:16.273Z,21.73
2019-01-24T11:26:46.870Z,20.53
2019-01-24T11:29:17.419Z,21.35
2019-01-24T11:31:48.103Z,20.27
2019-01-24T11:34:19.126Z,19.62
2019-01-24T11:36:49.927Z,20.70
2019-01-24T11:39:20.767Z,20.60
2019-01-24T11:41:51.289Z,21.53
2019-01-24T11:44:21.797Z,19.27
2019-01-24T11:46:52.346Z,21.13
2019-01-24T11:49:23.127Z,21.80
2019-01-24T11:51:53.989Z,20.97
2019-01-24T11:54:24.866Z,20.12
2019-01-24T11:56:55.417Z,19.53
2019-01-24T11:59:25.946Z,20.90
2019-01-24T12:01:56.842Z,19.40
2019-01-24T12:04:27.662Z,20.10
2019-01-24T12:07:04.112Z,22.33
2019-01-24T12:09:30.441Z,21.77
2019-01-24T12:12:00.969Z,21.97
2019-01-24T12:14:31.543Z,20.33
2019-01-24T12:17:02.234Z,20.80
2019-01-24T12:19:33.171Z,21.17
2019-01-24T12:22:04.103Z,21.50
2019-01-24T12:24:34.655Z,21.97
2019-01-24T12:27:05.189Z,21.67
2019-01-24T12:29:35.944Z,23.17
2019-01-24T12:32:06.452Z,22.80
2019-01-24T12:34:37.039Z,21.13
2019-01-24T12:37:11.345Z,22.70
2019-01-24T12:39:40.127Z,22.00
2019-01-24T12:42:11.028Z,22.17
2019-01-24T12:44:41.860Z,21.42
2019-01-24T12:47:13.331Z,20.30
2019-01-24T12:49:44.015Z,19.57
2019-01-24T12:52:14.842Z,20.57
2019-01-24T12:54:45.370Z,20.73
2019-01-24T12:57:16.204Z,21.93
2019-01-24T12:59:46.999Z,22.57
2019-01-24T13:02:17.582Z,23.32
2019-01-24T13:04:48.115Z,21.10
2019-01-24T13:07:19.283Z,21.57
2019-01-24T13:09:50.116Z,22.40
2019-01-24T13:12:20.943Z,22.35
2019-01-24T13:14:51.473Z,20.77
2019-01-24T13:17:21.975Z,20.57
2019-01-24T13:19:52.518Z,22.87
2019-01-24T13:22:23.893Z,21.50
2019-01-24T13:24:54.438Z,21.43
2019-01-24T13:27:25.312Z,21.80
2019-01-24T13:29:56.039Z,21.47
2019-01-24T13:32:26.687Z,20.77
2019-01-24T13:34:57.246Z,20.53
2019-01-24T13:37:27.835Z,21.05
2019-01-24T13:39:58.409Z,21.17
2019-01-24T13:42:29.232Z,20.80
2019-01-24T13:45:00.194Z,20.10
2019-01-24T13:47:31.149Z,18.40
2019-01-24T13:50:02.009Z,21.00
2019-01-24T13:52:32.563Z,22.07
2019-01-24T13:55:03.289Z,18.27
2019-01-24T13:57:34.131Z,21.02
2019-01-24T14:00:07.632Z,21.57
2019-01-24T14:02:39.071Z,20.00
2019-01-24T14:05:12.114Z,16.63
2019-01-24T14:07:42.687Z,17.30
2019-01-24T14:10:15.120Z,19.17
2019-01-24T14:12:45.619Z,18.20
2019-01-24T14:15:17.460Z,19.47
2019-01-24T14:17:48.159Z,19.20
2019-01-24T14:20:19.842Z,18.77
2019-01-24T14:22:50.544Z,19.33
2019-01-24T14:25:21.619Z,22.55
2019-01-24T14:27:52.373Z,21.53
2019-01-24T14:30:26.779Z,22.40
2019-01-24T14:32:57.539Z,20.73
2019-01-24T14:35:28.151Z,20.83
2019-01-24T14:37:59.003Z,20.17
2019-01-24T14:40:29.644Z,20.35
2019-01-24T14:43:00.472Z,20.60
2019-01-24T14:45:31.392Z,20.48
2019-01-24T14:48:02.171Z,20.90
2019-01-24T14:50:32.796Z,20.30
2019-01-24T14:53:03.437Z,18.73
2019-01-24T14:55:34.282Z,18.10
2019-01-24T14:58:05.906Z,19.40
2019-01-24T15:00:51.187Z,20.83
2019-01-24T15:03:21.763Z,21.40
2019-01-24T15:05:52.348Z,22.33
2019-01-24T15:08:23.230Z,21.65
2019-01-24T15:10:53.825Z,20.60
2019-01-24T15:13:24.733Z,21.00
2019-01-24T15:15:55.458Z,22.47
2019-01-24T15:18:26.486Z,20.20
2019-01-24T15:20:57.299Z,19.90
2019-01-24T15:23:28.390Z,20.75
2019-01-24T15:25:59.197Z,21.52
2019-01-24T15:28:29.751Z,20.97
2019-01-24T15:31:00.462Z,21.60
2019-01-24T15:33:31.360Z,20.52
2019-01-24T15:36:01.954Z,18.97
2019-01-24T15:38:32.537Z,20.63
2019-01-24T15:41:03.320Z,19.97
2019-01-24T15:43:33.909Z,20.63
2019-01-24T15:46:04.716Z,20.57
2019-01-24T15:48:42.263Z,20.67
2019-01-24T15:51:07.822Z,21.67
2019-01-24T15:53:38.472Z,20.17
2019-01-24T15:56:09.307Z,19.92
2019-01-24T15:58:39.910Z,21.20
2019-01-24T16:01:10.586Z,19.67
2019-01-24T16:03:41.505Z,19.92
2019-01-24T16:06:13.546Z,19.37
2019-01-24T16:08:44.394Z,19.37
2019-01-24T16:11:15.005Z,19.20
2019-01-24T16:13:45.722Z,20.03
2019-01-24T16:16:16.552Z,19.07
2019-01-24T16:18:47.132Z,20.07
2019-01-24T16:21:17.782Z,20.43
2019-01-24T16:23:48.416Z,20.90
2019-01-24T16:26:19.005Z,18.30
2019-01-24T16:28:49.595Z,20.90
2019-01-24T16:31:20.141Z,20.20
2019-01-24T16:33:50.774Z,20.40
2019-01-24T16:36:21.786Z,18.52
2019-01-24T16:38:52.430Z,20.20
2019-01-24T16:41:23.014Z,20.33
2019-01-24T16:43:53.587Z,18.53
2019-01-24T16:46:24.213Z,18.60
2019-01-24T16:48:54.901Z,20.83
2019-01-24T16:51:25.799Z,19.03
2019-01-24T16:53:56.552Z,19.33
2019-01-24T16:56:27.463Z,20.92
2019-01-24T16:58:58.155Z,20.17
2019-01-24T17:01:28.807Z,20.08
2019-01-24T17:03:59.832Z,19.87
2019-01-24T17:06:30.934Z,20.45
2019-01-24T17:09:01.812Z,20.60
2019-01-24T17:11:32.476Z,21.00
2019-01-24T17:14:04.119Z,20.87
2019-01-24T17:16:34.770Z,21.53
2019-01-24T17:19:05.884Z,21.25
2019-01-24T17:21:36.718Z,21.57
2019-01-24T17:24:07.650Z,20.37
2019-01-24T17:26:38.493Z,20.07
2019-01-24T17:29:09.062Z,20.03
2019-01-24T17:31:40.007Z,20.63
2019-01-24T17:34:10.910Z,19.97
2019-01-24T17:36:41.977Z,20.03
2019-01-24T17:39:14.304Z,20.03
2019-01-24T17:41:46.472Z,19.87
2019-01-24T17:44:17.069Z,19.23
2019-01-24T17:46:47.667Z,19.47
2019-01-24T17:49:20.026Z,19.57
2019-01-24T17:51:50.729Z,21.03
2019-01-24T17:54:21.582Z,20.48
2019-01-24T17:56:52.234Z,20.90
2019-01-24T17:59:22.776Z,19.73
2019-01-24T18:01:53.720Z,21.90
2019-01-24T18:04:24.265Z,20.35
2019-01-24T18:06:54.900Z,23.60
2019-01-24T18:09:25.771Z,21.48
2019-01-24T18:11:56.573Z,23.27
2019-01-24T18:14:27.118Z,21.37
2019-01-24T18:16:57.714Z,22.70
2019-01-24T18:19:28.910Z,23.07
2019-01-24T18:21:59.838Z,20.37
2019-01-24T18:24:30.783Z,21.48
2019-01-24T18:27:01.399Z,21.33
2019-01-24T18:29:31.984Z,21.27
2019-01-24T18:34:40.638Z,24.83
2019-01-24T18:37:11.288Z,23.73
2019-01-24T18:39:41.957Z,22.27
2019-01-24T18:42:14.402Z,21.40
2019-01-24T18:44:45.109Z,22.07
2019-01-24T18:47:15.691Z,24.00
2019-01-24T18:49:46.347Z,22.10
2019-01-24T18:52:17.253Z,24.07
2019-01-24T18:54:47.898Z,20.83
2019-01-24T18:57:18.961Z,21.77
2019-01-24T18:59:49.753Z,20.63
2019-01-24T19:02:20.335Z,22.22
2019-01-24T19:04:51.098Z,23.10
2019-01-24T19:07:22.139Z,22.58
2019-01-24T19:09:53.066Z,22.47
2019-01-24T19:12:23.925Z,22.77
2019-01-24T19:14:54.849Z,23.80
2019-01-24T19:17:26.120Z,23.42
2019-01-24T19:19:56.749Z,22.97
2019-01-24T19:22:27.411Z,23.57
2019-01-24T19:24:57.983Z,22.40
2019-01-24T19:27:28.895Z,21.95
2019-01-24T19:29:59.946Z,22.40
2019-01-24T19:32:30.797Z,22.33
2019-01-24T19:35:01.630Z,22.50
2019-01-24T19:37:32.155Z,22.73
2019-01-24T19:40:03.015Z,22.53
2019-01-24T19:42:36.057Z,21.10
2019-01-24T19:45:11.567Z,21.93
2019-01-24T19:47:42.164Z,21.47
2019-01-24T19:50:17.774Z,21.45
2019-01-24T19:52:48.485Z,22.63
2019-01-24T19:55:19.615Z,21.43
2019-01-24T19:57:54.668Z,18.83
2019-01-24T20:00:28.409Z,21.57
2019-01-24T20:02:59.182Z,20.73
2019-01-24T20:05:30.185Z,21.15
2019-01-24T20:08:01.094Z,21.03
2019-01-24T20:10:32.372Z,20.17
2019-01-24T20:13:03.269Z,21.40
2019-01-24T20:15:34.053Z,20.20
2019-01-24T20:18:06.611Z,19.93
2019-01-24T20:20:37.711Z,22.13
2019-01-24T20:23:08.575Z,18.50
2019-01-24T20:25:39.142Z,20.70
2019-01-24T20:28:10.012Z,20.90
2019-01-24T20:30:40.876Z,19.75
2019-01-24T20:33:11.488Z,20.73
2019-01-24T20:36:01.260Z,20.60
2019-01-24T20:38:31.882Z,20.90
2019-01-24T20:41:02.641Z,21.40
2019-01-24T20:43:35.602Z,20.83
2019-01-24T20:46:05.975Z,20.90
2019-01-24T20:48:36.772Z,20.93
2019-01-24T20:51:07.419Z,22.23
2019-01-24T20:53:37.987Z,21.43
2019-01-24T20:56:08.956Z,21.13
2019-01-24T20:58:39.862Z,21.20
2019-01-24T21:01:10.486Z,22.27
2019-01-24T21:03:41.205Z,21.43
2019-01-24T21:06:12.103Z,22.67
2019-01-24T21:08:43.475Z,19.67
2019-01-24T21:11:14.468Z,19.40
2019-01-24T21:13:45.124Z,21.30
2019-01-24T21:16:16.214Z,21.12
2019-01-24T21:18:47.061Z,18.93
2019-01-24T21:21:18.100Z,22.20
2019-01-24T21:23:49.067Z,19.67
2019-01-24T21:26:19.913Z,20.20
2019-01-24T21:28:50.567Z,21.40
2019-01-24T21:31:21.446Z,22.53
2019-01-24T21:33:52.269Z,21.77
2019-01-24T21:36:23.151Z,23.30
2019-01-24T21:38:54.042Z,23.20
2019-01-24T21:41:24.911Z,25.00
2019-01-24T21:43:55.550Z,23.77
2019-01-24T21:46:26.280Z,24.05
2019-01-24T21:48:57.083Z,25.53
2019-01-24T21:51:27.931Z,23.83
2019-01-24T21:53:58.560Z,24.70
2019-01-24T21:56:29.151Z,22.43
2019-01-24T21:59:00.026Z,22.63
2019-01-24T22:01:31.248Z,21.62
2019-01-24T22:04:07.444Z,22.23
2019-01-24T22:06:38.116Z,24.03
2019-01-24T22:09:10.592Z,22.13
2019-01-24T22:11:41.228Z,22.30
2019-01-24T22:14:11.954Z,23.27
2019-01-24T22:16:42.676Z,22.43
2019-01-24T22:19:14.411Z,24.05
2019-01-24T22:21:45.284Z,23.20
2019-01-24T22:24:16.155Z,22.63
2019-01-24T22:26:47.026Z,23.03
2019-01-24T22:29:17.692Z,24.03
2019-01-24T22:31:48.318Z,23.37
2019-01-24T22:34:19.173Z,22.67
2019-01-24T22:36:49.746Z,21.73
2019-01-24T22:39:20.433Z,21.83
2019-01-24T22:41:51.120Z,20.17
2019-01-24T22:44:21.977Z,20.62
2019-01-24T22:46:52.566Z,20.43
2019-01-24T22:49:23.323Z,21.42
2019-01-24T22:51:54.227Z,22.13
2019-01-24T22:54:25.112Z,20.88
2019-01-24T22:56:55.917Z,20.17
2019-01-24T22:59:26.521Z,20.73
2019-01-24T23:02:10.514Z,21.43
2019-01-24T23:04:41.024Z,22.57
2019-01-24T23:07:11.597Z,18.77
2019-01-24T23:09:44.175Z,19.60
2019-01-24T23:12:14.576Z,20.57
2019-01-24T23:14:45.194Z,19.83
2019-01-24T23:17:16.036Z,20.20
2019-01-24T23:19:46.547Z,20.67
2019-01-24T23:22:17.353Z,19.53
2019-01-24T23:24:48.202Z,19.03
2019-01-24T23:27:19.045Z,19.10
2019-01-24T23:29:49.633Z,20.00
2019-01-24T23:32:20.164Z,20.32
2019-01-24T23:34:50.964Z,20.43
2019-01-24T23:37:21.458Z,20.65
2019-01-24T23:39:53.589Z,21.43
2019-01-24T23:42:24.480Z,22.20
2019-01-24T23:44:55.155Z,20.70
2019-01-24T23:47:25.684Z,19.73
2019-01-24T23:49:56.284Z,20.07
2019-01-24T23:52:27.389Z,20.32
2019-01-24T23:54:58.215Z,20.68
2019-01-24T23:57:28.793Z,17.87
2019-01-24T23:59:59.349Z,20.83
